• Join FlightAware (Why Join?)
  • Login
  • US Flag 
02:04AM EDT


 

Airport Tracker/Info


-or-


 

Live Flight TrackerFlight Track Log ✈ SWA1435 ✈ 06-May-2013 ✈ KSTL - KOMA

Flight Track Log - Related Links

Times and Time Zones

All times are in EDT time to prevent confusion due to time zone crossing. See the SWA1435 flight status page for this flight to view local times or setup timezone preferences in your user account.

Time Position Orientation Groundspeed Altitude Reporting Facility
EDT Latitude Longitude Course Direction KTS MPH feet Rate Location/Type
09:30AM 38.7975 -90.4850 307° West 203 234 3,900  Level Kansas City Center
09:32AM 38.8756 -90.6403 303° West  Level Estimated
09:32AM 38.8781 -90.6417 303° West 266 306 9,300  Level Kansas City Center
09:34AM 38.9586 -90.8027 322° Northwest  Level Estimated
09:34AM 38.9919 -90.8600 322° Northwest 344 396 14,400  Level Kansas City Center
09:35AM 39.0464 -90.9681 303° West 357 411 16,600 2,160 Climbing Kansas City Center
09:36AM 39.1039 -91.0808 303° West 371 427 18,900 2,100 Climbing Kansas City Center
09:37AM 39.1550 -91.2008 299° West 380 437 21,000 1,560 Climbing Kansas City Center
09:38AM 39.2067 -91.3269 298° West 393 452 22,200 1,500 Climbing Kansas City Center
09:39AM 39.2586 -91.4614 297° West 414 476 24,100 1,680 Climbing Kansas City Center
09:41AM 39.3186 -91.6203 305° West  Level FlightAware Approximate
09:41AM 39.3769 -91.7508 305° West 431 496 27,500  Level Kansas City Center
09:42AM 39.4486 -91.8722 307° West 429 494 28,400 720 Climbing Kansas City Center
09:43AM 39.5197 -91.9947 307° West 427 491 29,000 1,020 Climbing Kansas City Center
09:44AM 39.5903 -92.1233 305° West 436 502 30,500 1,620 Climbing Kansas City Center
09:46AM 39.7425 -92.3958 306° West 424 488 34,000 1,080 Climbing Kansas City Center
09:47AM 39.8097 -92.5167 306° West 416 479 34,000  Level Kansas City Center
09:50AM 39.9464 -92.7608 306° West 419 482 34,000  Level Kansas City Center
09:51AM 40.0681 -92.9842 305° West 421 484 34,000  Level Minneapolis Center
09:52AM 40.1492 -93.1350 305° West 420 483 34,000  Level Minneapolis Center
09:53AM 40.2169 -93.2600 305° West 422 486 34,000  Level Minneapolis Center
09:54AM 40.2317 -93.2858 307° West 422 486 34,000 -240 Level Kansas City Center
09:55AM 40.2992 -93.4117 305° West 424 488 33,700 -540 Descending Kansas City Center
09:56AM 40.3694 -93.5392 306° West 429 494 33,000 -420 Descending Kansas City Center
09:56AM 40.4228 -93.6425 304° West 432 497 33,000  Level Minneapolis Center
09:59AM 40.5889 -93.9533 305° West 434 499 33,000 -360 Level Kansas City Center
10:00AM 40.6153 -94.0747 286° West 434 499 32,000 -2,160 Descending Minneapolis Center
10:02AM 40.6617 -94.3769 282° West 425 489 27,100 -2,280 Descending Minneapolis Center
10:04AM 40.7183 -94.7067 283° West 384 442 22,000 -2,100 Descending Kansas City Center
10:06AM 40.7464 -94.9204 279° West  Level FlightAware Approximate
10:07AM 40.7842 -95.0528 315° West 325 374 16,400  Level Minneapolis Center
10:09AM 40.8886 -95.2492 305° West 333 383 11,400 -2,220 Descending Minneapolis Center
10:10AM 40.9325 -95.3436 302° West 337 388 9,900 -900 Descending Minneapolis Center
10:11AM 40.9819 -95.4225 310° West 288 331 9,600 -900 Descending Minneapolis Center
10:12AM 41.0417 -95.4608 334° Northwest 257 296 8,100 -1,320 Descending Minneapolis Center
10:13AM 41.1662 -95.7050 315° West  Level FlightAware Approximate
10:13AM 41.1003 -95.4989 334° Northwest 243 280 7,000  Level Minneapolis Center
10:14AM 41.1072 -95.5661 278° West 243 280 5,700 -1,140 Descending Minneapolis Center
10:15AM 41.0758 -95.6381 240° Southwest 232 267 4,700 -1,080 Descending Minneapolis Center
10:16AM 41.1178 -95.7228 303° West 232 267 3,500 -840 Descending Minneapolis Center
10:17AM 41.1656 -95.7656 326° Northwest 220 253 3,000 -360 Descending Minneapolis Center
10:18AM 41.2033 -95.8028 323° Northwest 184 212 2,900 -540 Descending Minneapolis Center
10:20AM 41.2725 -95.8694 324° Northwest 128 147 1,500 -720 Descending Minneapolis Center
10:22AM 41.3000 -95.8833 312° West  Level FlightAware Approximate
10:29AM 41.3032 -95.8941 312° West  Level Estimated